createdAt,value
2022-12-04T00:00:03.533Z,22.7
2022-12-04T00:01:05.737Z,22.5
2022-12-04T00:02:08.226Z,22.6
2022-12-04T00:03:10.200Z,22.7
2022-12-04T00:04:12.543Z,22.6
2022-12-04T00:05:15.350Z,22.6
2022-12-04T00:06:17.861Z,22.6
2022-12-04T00:07:20.095Z,22.7
2022-12-04T00:08:22.323Z,22.8
2022-12-04T00:09:24.794Z,22.8
2022-12-04T00:10:27.283Z,22.7
2022-12-04T00:11:29.755Z,22.5
2022-12-04T00:12:32.254Z,22.7
2022-12-04T00:13:34.814Z,22.7
2022-12-04T00:14:49.238Z,22.7
2022-12-04T00:15:42.277Z,22.6
2022-12-04T00:16:44.803Z,22.7
2022-12-04T00:17:47.619Z,22.9
2022-12-04T00:18:49.839Z,22.9
2022-12-04T00:19:52.056Z,22.8
2022-12-04T00:20:56.471Z,23
2022-12-04T00:21:58.695Z,22.8
2022-12-04T00:23:01.209Z,22.9
2022-12-04T00:24:03.438Z,22.9
2022-12-04T00:25:05.938Z,23
2022-12-04T00:26:08.144Z,22.9
2022-12-04T00:27:10.615Z,22.7
2022-12-04T00:28:12.820Z,22.8
2022-12-04T00:29:15.376Z,22.8
2022-12-04T00:30:17.614Z,23
2022-12-04T00:31:20.170Z,22.9
2022-12-04T00:32:23.178Z,22.7
2022-12-04T00:33:25.657Z,23
2022-12-04T00:34:27.862Z,22.9
2022-12-04T00:35:30.337Z,22.8
2022-12-04T00:36:32.544Z,22.9
2022-12-04T00:37:34.745Z,23
2022-12-04T00:38:37.221Z,23
2022-12-04T00:39:39.450Z,22.8
2022-12-04T00:40:41.919Z,22.8
2022-12-04T00:41:44.122Z,23
2022-12-04T00:42:46.326Z,23
2022-12-04T00:43:48.547Z,23
2022-12-04T00:44:51.110Z,22.9
2022-12-04T00:45:53.365Z,22.9
2022-12-04T00:46:56.359Z,22.8
2022-12-04T00:47:58.567Z,22.9
2022-12-04T00:49:01.054Z,23.1
2022-12-04T00:50:03.623Z,23
2022-12-04T00:51:06.102Z,22.9
2022-12-04T00:52:08.581Z,22.8
2022-12-04T00:53:11.098Z,22.9
2022-12-04T00:54:13.600Z,22.8
2022-12-04T00:55:16.111Z,23
2022-12-04T00:56:18.743Z,23
2022-12-04T00:57:21.338Z,22.8
2022-12-04T00:58:23.520Z,23
2022-12-04T00:59:25.468Z,23
2022-12-04T01:00:28.041Z,22.9
2022-12-04T01:01:30.628Z,22.9
2022-12-04T01:02:33.841Z,23
2022-12-04T01:03:36.466Z,23
2022-12-04T01:04:39.023Z,23.1
2022-12-04T01:05:41.505Z,23
2022-12-04T01:06:44.003Z,23
2022-12-04T01:07:46.239Z,23.1
2022-12-04T01:08:48.653Z,22.9
2022-12-04T01:09:50.844Z,22.9
2022-12-04T01:10:54.585Z,23
2022-12-04T01:11:56.789Z,23.1
2022-12-04T01:12:59.297Z,23
2022-12-04T01:14:01.498Z,23.1
2022-12-04T01:15:03.717Z,22.9
2022-12-04T01:16:06.349Z,23.1
2022-12-04T01:17:08.955Z,22.9
2022-12-04T01:18:10.866Z,22.9
2022-12-04T01:19:13.369Z,23
2022-12-04T01:20:15.591Z,23.1
2022-12-04T01:21:17.800Z,23.1
2022-12-04T01:22:20.280Z,23.1
2022-12-04T01:23:22.761Z,23.1
2022-12-04T01:24:24.936Z,23
2022-12-04T01:25:27.414Z,22.9
2022-12-04T01:26:29.636Z,23
2022-12-04T01:27:31.908Z,23
2022-12-04T01:28:34.491Z,23.2
2022-12-04T01:29:36.978Z,23.2
2022-12-04T01:30:39.194Z,23.2
2022-12-04T01:31:41.871Z,23.1
2022-12-04T01:32:44.770Z,23.2
2022-12-04T01:33:47.254Z,23
2022-12-04T01:34:49.465Z,23.2
2022-12-04T01:35:51.951Z,23.2
2022-12-04T01:36:54.428Z,23.2
2022-12-04T01:37:56.636Z,23.1
2022-12-04T01:38:58.844Z,23.1
2022-12-04T01:40:01.055Z,23.1
2022-12-04T01:41:03.536Z,23.1
2022-12-04T01:42:05.474Z,23.1
2022-12-04T01:43:07.432Z,23.1
2022-12-04T01:44:09.680Z,23.1
2022-12-04T01:45:12.153Z,23.2
2022-12-04T01:46:14.696Z,22.9
2022-12-04T01:47:17.757Z,23.2
2022-12-04T01:48:20.233Z,23
2022-12-04T01:49:22.535Z,23.1
2022-12-04T01:50:24.745Z,23.1
2022-12-04T01:51:27.234Z,23.1
2022-12-04T01:52:29.439Z,23.1
2022-12-04T01:53:31.367Z,23.2
2022-12-04T01:54:33.851Z,23
2022-12-04T01:55:36.321Z,23.2
2022-12-04T01:56:38.797Z,23.2
2022-12-04T01:57:41.281Z,23.2
2022-12-04T01:58:43.773Z,23.2
2022-12-04T01:59:46.000Z,23.2
2022-12-04T02:00:51.562Z,23.3
2022-12-04T02:01:53.313Z,23.2
2022-12-04T02:02:56.893Z,23.2
2022-12-04T02:03:59.801Z,23.2
2022-12-04T02:05:01.450Z,23.1
2022-12-04T02:06:03.926Z,23.4
2022-12-04T02:07:06.108Z,23.2
2022-12-04T02:08:08.143Z,23.2
2022-12-04T02:09:11.132Z,23.2
2022-12-04T02:10:13.333Z,23.2
2022-12-04T02:11:15.806Z,23.1
2022-12-04T02:12:18.296Z,23.3
2022-12-04T02:13:20.791Z,23.3
2022-12-04T02:14:23.282Z,23.1
2022-12-04T02:15:25.781Z,23.3
2022-12-04T02:16:28.042Z,23.2
2022-12-04T02:17:30.781Z,23.2
2022-12-04T02:18:33.368Z,23.1
2022-12-04T02:19:35.877Z,23.4
2022-12-04T02:20:38.098Z,23.3
2022-12-04T02:21:40.593Z,23.2
2022-12-04T02:22:43.074Z,23.3
2022-12-04T02:23:45.557Z,23.2
2022-12-04T02:24:50.109Z,23.3
2022-12-04T02:25:52.480Z,23.4
2022-12-04T02:26:54.955Z,23.3
2022-12-04T02:27:57.429Z,23.2
2022-12-04T02:28:59.911Z,23.2
2022-12-04T02:30:02.384Z,23.2
2022-12-04T02:31:04.484Z,23.3
2022-12-04T02:32:07.265Z,23.4
2022-12-04T02:33:09.473Z,23.2
2022-12-04T02:34:16.517Z,23.3
2022-12-04T02:35:18.749Z,23.2
2022-12-04T02:36:21.226Z,23.2
2022-12-04T02:37:23.426Z,23.1
2022-12-04T02:38:25.931Z,23.2
2022-12-04T02:39:28.418Z,23.1
2022-12-04T02:40:30.906Z,23.3
2022-12-04T02:41:33.113Z,23.3
2022-12-04T02:42:35.596Z,23.1
2022-12-04T02:43:38.079Z,23.2
2022-12-04T02:44:40.298Z,23.2
2022-12-04T02:45:42.861Z,23.2
2022-12-04T02:46:45.346Z,23.3
2022-12-04T02:47:47.541Z,23.3
2022-12-04T02:48:50.030Z,23.2
2022-12-04T02:49:52.947Z,23.2
2022-12-04T02:50:56.905Z,23.3
2022-12-04T02:51:59.384Z,23.4
2022-12-04T02:53:01.299Z,23.3
2022-12-04T02:54:03.792Z,23.3
2022-12-04T02:55:08.512Z,23.2
2022-12-04T02:56:10.972Z,23.2
2022-12-04T02:57:13.489Z,23.1
2022-12-04T02:58:16.007Z,23.2
2022-12-04T02:59:18.243Z,23.1
2022-12-04T03:00:20.740Z,23.2
2022-12-04T03:01:23.325Z,23.2
2022-12-04T03:02:26.444Z,23.3
2022-12-04T03:03:29.293Z,23.3
2022-12-04T03:04:31.785Z,23.2
2022-12-04T03:05:34.348Z,23.4
2022-12-04T03:06:36.868Z,23.4
2022-12-04T03:07:39.118Z,23.3
2022-12-04T03:08:41.733Z,23.2
2022-12-04T03:09:44.216Z,23.6
2022-12-04T03:10:46.685Z,23.3
2022-12-04T03:11:49.155Z,23.4
2022-12-04T03:12:51.643Z,23.4
2022-12-04T03:13:53.265Z,23.5
2022-12-04T03:14:55.468Z,23.3
2022-12-04T03:15:57.939Z,23.3
2022-12-04T03:17:00.468Z,23.3
2022-12-04T03:18:03.334Z,23.3
2022-12-04T03:19:05.542Z,23.4
2022-12-04T03:20:07.755Z,23.1
2022-12-04T03:21:10.312Z,23.3
2022-12-04T03:22:12.528Z,23.3
2022-12-04T03:23:15.010Z,23.2
2022-12-04T03:24:17.500Z,23.2
2022-12-04T03:25:19.698Z,23.4
2022-12-04T03:26:22.176Z,23.3
2022-12-04T03:27:24.387Z,23.4
2022-12-04T03:28:26.852Z,23.2
2022-12-04T03:29:28.802Z,23.2
2022-12-04T03:30:31.290Z,23.3
2022-12-04T03:31:33.500Z,23.2
2022-12-04T03:32:35.985Z,23.3
2022-12-04T03:33:38.494Z,23.3
2022-12-04T03:34:40.685Z,23.3
2022-12-04T03:35:43.162Z,23.2
2022-12-04T03:36:45.708Z,23.2
2022-12-04T03:37:48.224Z,23.2
2022-12-04T03:38:50.446Z,23.4
2022-12-04T03:39:53.196Z,23.3
2022-12-04T03:40:57.560Z,23.3
2022-12-04T03:41:59.738Z,23.3
2022-12-04T03:43:01.949Z,23.2
2022-12-04T03:44:03.588Z,23.3
2022-12-04T03:45:05.240Z,23.2
2022-12-04T03:46:07.854Z,23.1
2022-12-04T03:47:10.931Z,23.3
2022-12-04T03:48:15.040Z,23.4
2022-12-04T03:49:18.153Z,23.2
2022-12-04T03:50:20.637Z,23.4
2022-12-04T03:51:23.108Z,23.3
2022-12-04T03:52:25.688Z,23.3
2022-12-04T03:53:28.209Z,23.3
2022-12-04T03:54:30.692Z,23.3
2022-12-04T03:55:32.875Z,23.3
2022-12-04T03:56:35.345Z,23.3
2022-12-04T03:57:37.834Z,23.3
2022-12-04T03:58:40.033Z,23.6
2022-12-04T03:59:42.511Z,23.3
2022-12-04T04:00:44.985Z,23.4
2022-12-04T04:01:47.263Z,23.5
2022-12-04T04:02:50.340Z,23.3
2022-12-04T04:03:53.134Z,23.2
2022-12-04T04:04:55.632Z,23.5
2022-12-04T04:05:58.121Z,23.5
2022-12-04T04:07:00.300Z,23.4
2022-12-04T04:08:02.904Z,23.5
2022-12-04T04:09:05.505Z,23.4
2022-12-04T04:10:07.982Z,23.3
2022-12-04T04:11:10.464Z,23.3
2022-12-04T04:12:12.944Z,23.5
2022-12-04T04:13:14.605Z,23.3
2022-12-04T04:14:17.257Z,23.3
2022-12-04T04:15:19.732Z,23.2
2022-12-04T04:16:22.274Z,23.4
2022-12-04T04:17:24.940Z,23.3
2022-12-04T04:18:27.411Z,23.2
2022-12-04T04:19:29.617Z,23.2
2022-12-04T04:20:32.145Z,23.3
2022-12-04T04:21:34.369Z,23.3
2022-12-04T04:22:36.847Z,23.2
2022-12-04T04:23:39.121Z,23.5
2022-12-04T04:24:41.623Z,23.2
2022-12-04T04:25:44.088Z,23.2
2022-12-04T04:26:46.294Z,23
2022-12-04T04:27:48.208Z,23.3
2022-12-04T04:28:50.693Z,23.3
2022-12-04T04:29:53.191Z,23.2
2022-12-04T04:30:57.344Z,23.2
2022-12-04T04:32:00.263Z,23.2
2022-12-04T04:33:02.462Z,23.2
2022-12-04T04:34:04.938Z,23.1
2022-12-04T04:35:07.125Z,23.2
2022-12-04T04:36:09.656Z,23
2022-12-04T04:37:12.136Z,23.2
2022-12-04T04:38:14.319Z,23.1
2022-12-04T04:39:16.892Z,23.3
2022-12-04T04:40:19.403Z,23.3
2022-12-04T04:41:21.889Z,23.2
2022-12-04T04:42:24.092Z,23.1
2022-12-04T04:43:26.318Z,23.1
2022-12-04T04:44:28.796Z,23.3
2022-12-04T04:45:31.009Z,23
2022-12-04T04:46:33.525Z,23.1
2022-12-04T04:47:35.917Z,23.2
2022-12-04T04:48:38.099Z,23
2022-12-04T04:49:40.587Z,23.2
2022-12-04T04:50:43.065Z,23
2022-12-04T04:51:45.568Z,23.1
2022-12-04T04:52:48.039Z,23.1
2022-12-04T04:53:50.520Z,23.1
2022-12-04T04:54:53.265Z,23.2
2022-12-04T04:55:55.765Z,23.1
2022-12-04T04:56:58.249Z,23.2
2022-12-04T04:58:00.748Z,23
2022-12-04T04:59:02.929Z,23
2022-12-04T05:00:05.394Z,23
2022-12-04T05:01:07.601Z,23.2
2022-12-04T05:02:09.963Z,23.1
2022-12-04T05:03:12.754Z,23.1
2022-12-04T05:04:15.610Z,23
2022-12-04T05:05:18.085Z,23.1
2022-12-04T05:06:20.227Z,23
2022-12-04T05:07:22.466Z,23
2022-12-04T05:08:24.941Z,23.2
2022-12-04T05:09:27.405Z,22.9
2022-12-04T05:10:29.414Z,23
2022-12-04T05:11:31.643Z,23
2022-12-04T05:12:33.598Z,23
2022-12-04T05:13:36.096Z,23
2022-12-04T05:14:38.580Z,23
2022-12-04T05:15:41.173Z,23
2022-12-04T05:16:43.433Z,23
2022-12-04T05:17:45.638Z,22.9
2022-12-04T05:18:48.111Z,22.9
2022-12-04T05:19:50.623Z,22.9
2022-12-04T05:20:53.796Z,22.9
2022-12-04T05:21:56.274Z,22.9
2022-12-04T05:22:58.487Z,23
2022-12-04T05:24:00.979Z,23
2022-12-04T05:25:03.158Z,23
2022-12-04T05:26:05.460Z,22.9
2022-12-04T05:27:07.965Z,23
2022-12-04T05:28:10.165Z,23
2022-12-04T05:29:12.341Z,23
2022-12-04T05:30:14.817Z,23.1
2022-12-04T05:31:17.444Z,23
2022-12-04T05:32:20.352Z,23
2022-12-04T05:33:22.849Z,22.9
2022-12-04T05:34:25.054Z,23
2022-12-04T05:35:27.605Z,22.9
2022-12-04T05:36:30.077Z,22.9
2022-12-04T05:37:31.983Z,22.9
2022-12-04T05:38:33.944Z,23
2022-12-04T05:39:36.428Z,22.9
2022-12-04T05:40:38.919Z,22.9
2022-12-04T05:41:41.475Z,22.9
2022-12-04T05:42:43.992Z,23
2022-12-04T05:43:46.511Z,22.9
2022-12-04T05:44:48.983Z,22.9
2022-12-04T05:45:51.463Z,22.9
2022-12-04T05:46:53.975Z,22.9
2022-12-04T05:47:56.758Z,22.9
2022-12-04T05:48:59.226Z,23
2022-12-04T05:50:01.438Z,22.8
2022-12-04T05:51:03.379Z,23
2022-12-04T05:52:05.323Z,22.9
2022-12-04T05:53:07.819Z,22.8
2022-12-04T05:54:10.351Z,22.8
2022-12-04T05:55:12.820Z,22.9
2022-12-04T05:56:15.294Z,23
2022-12-04T05:57:17.565Z,23
2022-12-04T05:58:20.066Z,22.8
2022-12-04T05:59:22.545Z,22.8
2022-12-04T06:00:24.731Z,22.7
2022-12-04T06:01:26.949Z,22.9
2022-12-04T06:02:29.520Z,22.9
2022-12-04T06:03:32.949Z,22.7
2022-12-04T06:04:35.874Z,22.6
2022-12-04T06:05:38.076Z,22.8
2022-12-04T06:06:40.562Z,22.8
2022-12-04T06:07:43.147Z,22.7
2022-12-04T06:08:45.701Z,22.7
2022-12-04T06:09:47.951Z,22.9
2022-12-04T06:10:50.146Z,22.7
2022-12-04T06:11:52.345Z,22.7
2022-12-04T06:12:54.892Z,22.8
2022-12-04T06:13:57.389Z,22.8
2022-12-04T06:14:59.871Z,22.8
2022-12-04T06:16:02.174Z,22.7
2022-12-04T06:17:04.904Z,22.8
2022-12-04T06:18:07.099Z,22.9
2022-12-04T06:19:09.315Z,22.8
2022-12-04T06:20:12.027Z,22.8
2022-12-04T06:21:14.980Z,22.8
2022-12-04T06:22:17.167Z,22.8
2022-12-04T06:23:19.352Z,22.8
2022-12-04T06:24:21.894Z,22.8
2022-12-04T06:25:23.841Z,22.8
2022-12-04T06:26:26.317Z,22.7
2022-12-04T06:27:28.890Z,22.8
2022-12-04T06:28:31.691Z,22.8
2022-12-04T06:29:34.209Z,22.7
2022-12-04T06:30:36.415Z,22.8
2022-12-04T06:31:38.973Z,22.7
2022-12-04T06:32:41.554Z,22.8
2022-12-04T06:33:43.758Z,22.8
2022-12-04T06:34:45.973Z,22.8
2022-12-04T06:35:48.464Z,22.8
2022-12-04T06:36:50.937Z,22.8
2022-12-04T06:37:53.417Z,22.7
2022-12-04T06:38:55.902Z,22.9
2022-12-04T06:39:58.397Z,22.7
2022-12-04T06:41:01.384Z,22.8
2022-12-04T06:42:03.861Z,22.7
2022-12-04T06:43:06.076Z,22.6
2022-12-04T06:44:08.356Z,22.8
2022-12-04T06:45:10.862Z,22.7
2022-12-04T06:46:13.366Z,22.8
2022-12-04T06:47:16.036Z,22.8
2022-12-04T06:48:18.241Z,22.9
2022-12-04T06:49:20.733Z,22.8
2022-12-04T06:50:23.054Z,22.6
2022-12-04T06:51:25.543Z,22.7
2022-12-04T06:52:27.752Z,22.8
2022-12-04T06:53:30.250Z,22.6
2022-12-04T06:54:32.743Z,22.8
2022-12-04T06:55:34.646Z,22.6
2022-12-04T06:56:37.154Z,22.8
2022-12-04T06:57:39.634Z,22.8
2022-12-04T06:58:42.102Z,22.7
2022-12-04T06:59:44.385Z,22.6
2022-12-04T07:00:46.626Z,22.5
2022-12-04T07:01:48.933Z,22.6
2022-12-04T07:02:51.961Z,22.6
2022-12-04T07:03:54.667Z,22.7
2022-12-04T07:04:56.859Z,22.8
2022-12-04T07:05:59.349Z,22.6
2022-12-04T07:07:01.846Z,22.6
2022-12-04T07:08:04.086Z,22.6
2022-12-04T07:09:07.040Z,22.7
2022-12-04T07:10:09.528Z,22.8
2022-12-04T07:11:12.000Z,22.7
2022-12-04T07:12:13.947Z,22.7
2022-12-04T07:13:16.435Z,22.6
2022-12-04T07:14:18.904Z,22.5
2022-12-04T07:15:21.477Z,22.8
2022-12-04T07:16:24.056Z,22.7
2022-12-04T07:17:26.573Z,22.7
2022-12-04T07:18:29.047Z,22.8
2022-12-04T07:19:31.540Z,22.8
2022-12-04T07:20:34.023Z,22.8
2022-12-04T07:21:36.510Z,22.8
2022-12-04T07:22:38.707Z,22.7
2022-12-04T07:23:41.198Z,22.7
2022-12-04T07:24:43.666Z,22.8
2022-12-04T07:25:46.142Z,22.7
2022-12-04T07:26:48.325Z,22.7
2022-12-04T07:27:50.827Z,22.7
2022-12-04T07:28:53.319Z,22.5
2022-12-04T07:29:55.808Z,22.6
2022-12-04T07:30:59.134Z,22.8
2022-12-04T07:32:01.693Z,22.9
2022-12-04T07:33:04.802Z,22.7
2022-12-04T07:34:06.712Z,22.7
2022-12-04T07:35:08.627Z,22.7
2022-12-04T07:36:11.365Z,22.6
2022-12-04T07:37:13.839Z,22.6
2022-12-04T07:38:16.317Z,22.6
2022-12-04T07:39:18.783Z,22.6
2022-12-04T07:40:21.032Z,22.6
2022-12-04T07:41:22.965Z,22.7
2022-12-04T07:42:25.185Z,22.6
2022-12-04T07:43:27.685Z,22.8
2022-12-04T07:44:30.158Z,22.6
2022-12-04T07:45:32.683Z,22.5
2022-12-04T07:46:35.525Z,22.6
2022-12-04T07:47:37.927Z,22.6
2022-12-04T07:48:40.406Z,22.5
2022-12-04T07:49:42.888Z,22.6
2022-12-04T07:50:45.095Z,22.7
2022-12-04T07:51:47.323Z,22.6
2022-12-04T07:52:49.801Z,22.6
2022-12-04T07:53:52.287Z,22.7
2022-12-04T07:54:54.515Z,22.6
2022-12-04T07:55:56.720Z,22.5
2022-12-04T07:56:58.929Z,22.7
2022-12-04T07:58:01.417Z,22.6
2022-12-04T07:59:03.948Z,22.6
2022-12-04T08:00:06.184Z,22.7
2022-12-04T08:01:08.427Z,22.9
2022-12-04T08:02:11.473Z,22.7
2022-12-04T08:03:13.972Z,22.4
2022-12-04T08:04:15.443Z,22.7
2022-12-04T08:05:18.069Z,22.6
2022-12-04T08:06:20.536Z,22.7
2022-12-04T08:07:22.755Z,22.6
2022-12-04T08:08:25.252Z,22.7
2022-12-04T08:09:27.731Z,22.6
2022-12-04T08:10:29.990Z,22.6
2022-12-04T08:11:32.472Z,22.6
2022-12-04T08:12:34.653Z,22.7
2022-12-04T08:13:36.832Z,22.6
2022-12-04T08:14:39.333Z,22.7
2022-12-04T08:15:41.808Z,22.5
2022-12-04T08:16:47.095Z,22.7
2022-12-04T08:17:49.266Z,22.5
2022-12-04T08:18:51.833Z,22.7
2022-12-04T08:19:54.399Z,22.7
2022-12-04T08:20:58.778Z,22.7
2022-12-04T08:22:01.281Z,22.4
2022-12-04T08:23:03.769Z,22.7
2022-12-04T08:24:05.973Z,22.4
2022-12-04T08:25:08.154Z,22.6
2022-12-04T08:26:10.633Z,22.4
2022-12-04T08:27:13.117Z,22.4
2022-12-04T08:28:15.326Z,22.8
2022-12-04T08:29:17.509Z,22.5
2022-12-04T08:30:19.756Z,22.8
2022-12-04T08:31:22.316Z,22.6
2022-12-04T08:32:25.063Z,22.6
2022-12-04T08:33:27.305Z,22.5
2022-12-04T08:34:29.889Z,22.5
2022-12-04T08:35:32.369Z,22.5
2022-12-04T08:36:34.898Z,22.7
2022-12-04T08:37:37.112Z,22.2
2022-12-04T08:38:39.322Z,22.9
2022-12-04T08:39:41.498Z,22.8
2022-12-04T08:40:43.755Z,22.7
2022-12-04T08:41:45.959Z,22.5
2022-12-04T08:42:54.562Z,22.4
2022-12-04T08:43:57.062Z,22.4
2022-12-04T08:44:59.644Z,22.7
2022-12-04T08:46:02.208Z,22.6
2022-12-04T08:47:05.105Z,22.5
2022-12-04T08:48:07.598Z,22.5
2022-12-04T08:49:10.067Z,22.2
2022-12-04T08:50:16.577Z,22.5
2022-12-04T08:51:18.825Z,22.5
2022-12-04T08:52:21.042Z,22.5
2022-12-04T08:53:23.264Z,22.5
2022-12-04T08:54:25.785Z,22.4
2022-12-04T08:55:33.266Z,22.6
2022-12-04T08:56:35.473Z,22.7
2022-12-04T08:57:37.950Z,22.7
2022-12-04T08:58:40.140Z,22.5
2022-12-04T08:59:42.087Z,22.8
2022-12-04T09:00:44.561Z,22.8
2022-12-04T09:01:46.862Z,22.6
2022-12-04T09:02:49.348Z,23
2022-12-04T09:03:51.649Z,22.7
2022-12-04T09:04:54.548Z,22.4
2022-12-04T09:05:57.551Z,22.6
2022-12-04T09:06:59.811Z,22.7
2022-12-04T09:08:02.386Z,22.7
2022-12-04T09:09:05.286Z,22.5
2022-12-04T09:10:07.501Z,22.5
2022-12-04T09:11:09.719Z,22.7
2022-12-04T09:12:12.208Z,22.8
2022-12-04T09:13:14.742Z,22.6
2022-12-04T09:14:16.743Z,22.3
2022-12-04T09:15:19.270Z,22.5
2022-12-04T09:16:21.883Z,22.2
2022-12-04T09:17:25.161Z,22.4
2022-12-04T09:18:27.631Z,22
2022-12-04T09:19:29.564Z,22.6
2022-12-04T09:20:31.795Z,22.7
2022-12-04T09:21:34.032Z,22.6
2022-12-04T09:23:01.996Z,22.1
2022-12-04T09:23:41.562Z,22.3
2022-12-04T09:24:43.753Z,22.5
2022-12-04T09:25:46.280Z,22.1
2022-12-04T09:26:47.939Z,22.5
2022-12-04T09:27:50.147Z,22.1
2022-12-04T09:28:52.387Z,22.4
2022-12-04T09:29:54.921Z,22.1
2022-12-04T09:30:59.323Z,23
2022-12-04T09:32:02.106Z,22.4
2022-12-04T09:33:04.058Z,22.5
2022-12-04T09:34:06.541Z,22.5
2022-12-04T09:35:09.029Z,22.6
2022-12-04T09:36:11.259Z,22.3
2022-12-04T09:37:13.786Z,22.2
2022-12-04T09:38:16.325Z,22.7
2022-12-04T09:39:18.880Z,22.2
2022-12-04T09:40:21.381Z,22.3
2022-12-04T09:41:23.586Z,22.9
2022-12-04T09:42:25.810Z,22.1
2022-12-04T09:43:27.743Z,22.2
2022-12-04T09:44:30.230Z,22.6
2022-12-04T09:45:32.719Z,22.5
2022-12-04T09:46:34.728Z,22.5
2022-12-04T09:47:40.156Z,22.4
2022-12-04T09:48:42.393Z,22.1
2022-12-04T09:49:44.597Z,22.9
2022-12-04T09:50:47.107Z,22.9
2022-12-04T09:51:49.594Z,22.8
2022-12-04T09:52:52.135Z,23
2022-12-04T09:53:54.652Z,22.2
2022-12-04T09:54:57.147Z,22.1
2022-12-04T09:55:59.652Z,22
2022-12-04T09:57:02.163Z,22.6
2022-12-04T09:58:04.372Z,22.1
2022-12-04T09:59:06.863Z,22.9
2022-12-04T10:00:09.077Z,22.7
2022-12-04T10:01:11.331Z,22.9
2022-12-04T10:02:13.861Z,22.7
2022-12-04T10:03:16.802Z,22.3
2022-12-04T10:04:20.121Z,22.6
2022-12-04T10:05:23.139Z,22.8
2022-12-04T10:06:25.627Z,22.4
2022-12-04T10:07:28.196Z,22.4
2022-12-04T10:08:31.307Z,22.6
2022-12-04T10:09:33.849Z,22.2
2022-12-04T10:10:36.037Z,22.6
2022-12-04T10:11:38.268Z,22.4
2022-12-04T10:12:40.465Z,22.9
2022-12-04T10:13:42.394Z,22.6
2022-12-04T10:14:44.625Z,22.3
2022-12-04T10:15:46.928Z,22.3
2022-12-04T10:16:49.211Z,22.8
2022-12-04T10:17:51.734Z,22.7
2022-12-04T10:18:53.658Z,22.5
2022-12-04T10:19:55.977Z,22.8
2022-12-04T10:20:59.779Z,22.2
2022-12-04T10:22:02.280Z,22.2
2022-12-04T10:23:06.253Z,22.2
2022-12-04T10:24:09.453Z,22.5
2022-12-04T10:25:12.045Z,23
2022-12-04T10:26:14.530Z,22.7
2022-12-04T10:27:17.037Z,22.3
2022-12-04T10:28:19.249Z,22.8
2022-12-04T10:29:21.174Z,22.4
2022-12-04T10:30:23.820Z,22.7
2022-12-04T10:31:26.401Z,22.1
2022-12-04T10:32:29.399Z,22.7
2022-12-04T10:33:31.333Z,22.5
2022-12-04T10:34:33.855Z,22.1
2022-12-04T10:35:38.609Z,22.5
2022-12-04T10:36:41.086Z,22.4
2022-12-04T10:37:43.287Z,23
2022-12-04T10:38:45.795Z,23
2022-12-04T10:39:48.309Z,22.7
2022-12-04T10:40:50.904Z,22.3
2022-12-04T10:41:53.376Z,22.1
2022-12-04T10:42:55.612Z,22.9
2022-12-04T10:43:57.847Z,22.2
2022-12-04T10:45:00.071Z,22.2
2022-12-04T10:46:02.394Z,22.9
2022-12-04T10:47:05.290Z,22.2
2022-12-04T10:48:07.957Z,22.8
2022-12-04T10:49:10.154Z,22.4
2022-12-04T10:50:12.380Z,22.2
2022-12-04T10:51:14.890Z,22.3
2022-12-04T10:52:17.372Z,22.5
2022-12-04T10:53:19.846Z,22.4
2022-12-04T10:54:22.336Z,22.3
2022-12-04T10:55:24.555Z,23
2022-12-04T10:56:27.171Z,22
2022-12-04T10:57:28.841Z,22.7
2022-12-04T10:58:31.044Z,22.4
2022-12-04T10:59:33.526Z,22.6
2022-12-04T11:00:35.459Z,22.6
2022-12-04T11:01:37.413Z,22.3
2022-12-04T11:02:40.270Z,23.1
2022-12-04T11:03:43.780Z,22.8
2022-12-04T11:04:46.748Z,22.4
2022-12-04T11:05:49.237Z,22.4
2022-12-04T11:06:51.472Z,22.5
2022-12-04T11:07:53.753Z,22.2
2022-12-04T11:08:56.703Z,22.8
2022-12-04T11:09:59.116Z,22.6
2022-12-04T11:11:01.566Z,22.9
2022-12-04T11:12:04.228Z,22.4
2022-12-04T11:13:06.717Z,22.8
2022-12-04T11:14:09.198Z,22.4
2022-12-04T11:15:11.427Z,22.8
2022-12-04T11:16:13.971Z,22.6
2022-12-04T11:17:16.421Z,22.5
2022-12-04T11:18:18.655Z,22.4
2022-12-04T11:19:21.155Z,22.3
2022-12-04T11:20:22.796Z,22.8
2022-12-04T11:21:25.281Z,22.2
2022-12-04T11:22:27.504Z,22.6
2022-12-04T11:23:29.430Z,22.4
2022-12-04T11:24:31.383Z,22.5
2022-12-04T11:25:33.591Z,22.7
2022-12-04T11:26:35.790Z,22.6
2022-12-04T11:27:38.371Z,22.9
2022-12-04T11:28:42.311Z,22.7
2022-12-04T11:29:45.396Z,22.8
2022-12-04T11:30:47.880Z,22.6
2022-12-04T11:31:50.217Z,22.3
2022-12-04T11:32:53.210Z,22.6
2022-12-04T11:33:55.691Z,22.6
2022-12-04T11:34:58.203Z,23
2022-12-04T11:36:00.700Z,22.5
2022-12-04T11:37:03.184Z,22.3
2022-12-04T11:38:05.123Z,22.6
2022-12-04T11:39:07.341Z,22.3
2022-12-04T11:40:09.342Z,22.6
2022-12-04T11:41:11.813Z,22.5
2022-12-04T11:42:14.308Z,22.8
2022-12-04T11:43:16.891Z,22.5
2022-12-04T11:44:19.419Z,22.6
2022-12-04T11:45:21.636Z,22.7
2022-12-04T11:46:23.912Z,22.1
2022-12-04T11:47:26.279Z,22.3
2022-12-04T11:48:28.335Z,22.9
2022-12-04T11:49:30.818Z,22.4
2022-12-04T11:50:34.356Z,22.7
2022-12-04T11:51:36.572Z,22.2
2022-12-04T11:52:38.779Z,22.6
2022-12-04T11:53:41.059Z,22.6
2022-12-04T11:54:43.284Z,22.2
2022-12-04T11:55:45.542Z,22.3
2022-12-04T11:56:47.226Z,22.4
2022-12-04T11:57:49.720Z,22.4
2022-12-04T11:58:52.320Z,22.5
2022-12-04T11:59:54.540Z,22.5
2022-12-04T12:00:58.731Z,22.6
2022-12-04T12:02:01.388Z,22.3
2022-12-04T12:03:04.744Z,22.3
2022-12-04T12:04:08.081Z,22.7
2022-12-04T12:05:10.294Z,22.4
2022-12-04T12:06:12.782Z,22.6
2022-12-04T12:07:15.265Z,22.2
2022-12-04T12:08:16.925Z,22.5
2022-12-04T12:09:18.878Z,22.5
2022-12-04T12:10:21.364Z,23
2022-12-04T12:11:23.583Z,22.7
2022-12-04T12:12:26.073Z,22.4
2022-12-04T12:13:28.606Z,22.6
2022-12-04T12:14:31.212Z,22.4
2022-12-04T12:15:33.120Z,22.6
2022-12-04T12:16:35.690Z,22.9
2022-12-04T12:17:38.465Z,22.3
2022-12-04T12:18:40.952Z,22.4
2022-12-04T12:19:43.153Z,22.8
2022-12-04T12:20:45.070Z,22.2
2022-12-04T12:21:47.295Z,22.5
2022-12-04T12:22:49.508Z,22.4
2022-12-04T12:23:51.700Z,22.2
2022-12-04T12:24:54.060Z,22.6
2022-12-04T12:25:58.080Z,22.4
2022-12-04T12:27:00.582Z,22.5
2022-12-04T12:28:02.836Z,22.7
2022-12-04T12:29:05.831Z,23
2022-12-04T12:30:08.590Z,22.6
2022-12-04T12:31:10.519Z,22.6
2022-12-04T12:32:12.475Z,22.4
2022-12-04T12:33:14.900Z,22.1
2022-12-04T12:34:17.389Z,22.3
2022-12-04T12:35:19.861Z,23
2022-12-04T12:36:22.362Z,22.5
2022-12-04T12:37:24.842Z,22.6
2022-12-04T12:38:27.529Z,22.6
2022-12-04T12:39:30.007Z,22.8
2022-12-04T12:40:32.553Z,22.6
2022-12-04T12:41:35.046Z,22.5
2022-12-04T12:42:36.961Z,22.4
2022-12-04T12:43:39.900Z,22.6
2022-12-04T12:44:42.705Z,22.6
2022-12-04T12:45:45.355Z,22.3
2022-12-04T12:46:47.325Z,22.5
2022-12-04T12:47:49.008Z,22.3
2022-12-04T12:48:55.096Z,22.1
2022-12-04T12:49:56.522Z,22.3
2022-12-04T12:51:15.286Z,22.9
2022-12-04T12:52:05.200Z,22.1
2022-12-04T12:53:07.684Z,22.7
2022-12-04T12:54:10.164Z,22.3
2022-12-04T12:55:12.649Z,22.3
2022-12-04T12:56:15.273Z,22.5
2022-12-04T12:57:17.752Z,22.4
2022-12-04T12:58:19.969Z,22.3
2022-12-04T12:59:21.890Z,22.5
2022-12-04T13:00:24.153Z,22.5
2022-12-04T13:01:26.860Z,22.5
2022-12-04T13:02:29.693Z,22.5
2022-12-04T13:03:32.646Z,22.8
2022-12-04T13:04:34.869Z,22.2
2022-12-04T13:05:37.344Z,22.2
2022-12-04T13:06:39.973Z,22.5
2022-12-04T13:07:42.271Z,22.6
2022-12-04T13:08:46.413Z,22.7
2022-12-04T13:09:49.649Z,22.8
2022-12-04T13:10:51.826Z,22.6
2022-12-04T13:11:54.074Z,22.5
2022-12-04T13:12:56.566Z,22.4
2022-12-04T13:13:59.075Z,22.5
2022-12-04T13:15:01.275Z,22.3
2022-12-04T13:16:03.776Z,22.6
2022-12-04T13:17:06.600Z,22.6
2022-12-04T13:18:09.593Z,22.5
2022-12-04T13:19:12.086Z,22.4
2022-12-04T13:20:14.629Z,22.7
2022-12-04T13:21:17.211Z,22.6
2022-12-04T13:22:19.424Z,22.9
2022-12-04T13:23:21.357Z,22.7
2022-12-04T13:24:23.328Z,22.6
2022-12-04T13:25:25.879Z,22.6
2022-12-04T13:26:28.152Z,22.4
2022-12-04T13:27:30.386Z,22.7
2022-12-04T13:28:32.620Z,22.6
2022-12-04T13:29:34.842Z,22.7
2022-12-04T13:30:37.063Z,22.8
2022-12-04T13:31:39.340Z,22.5
2022-12-04T13:32:42.272Z,22.1
2022-12-04T13:33:44.474Z,22.4
2022-12-04T13:34:46.416Z,22.3
2022-12-04T13:35:48.627Z,22.5
2022-12-04T13:36:50.875Z,22.3
2022-12-04T13:37:53.414Z,22.5
2022-12-04T13:38:58.196Z,22.6
2022-12-04T13:40:00.604Z,22.4
2022-12-04T13:41:03.086Z,22.8
2022-12-04T13:42:05.034Z,22.9
2022-12-04T13:43:06.984Z,22.3
2022-12-04T13:44:09.473Z,22.4
2022-12-04T13:45:11.693Z,22.5
2022-12-04T13:46:14.033Z,22
2022-12-04T13:47:16.896Z,22.3
2022-12-04T13:48:19.475Z,22.6
2022-12-04T13:49:21.686Z,22.6
2022-12-04T13:50:24.185Z,22.7
2022-12-04T13:51:26.386Z,22.4
2022-12-04T13:52:28.874Z,22.5
2022-12-04T13:53:31.341Z,22.4
2022-12-04T13:54:33.552Z,22.5
2022-12-04T13:55:35.796Z,22.1
2022-12-04T13:56:38.283Z,22.8